sensor_id;sensor_type;location;lat;lon;timestamp;temperature;humidity
13245;DHT22;6689;53.400;12.486;2023-05-07T00:01:22;9.90;99.90
13245;DHT22;6689;53.400;12.486;2023-05-07T00:03:50;9.90;99.90
13245;DHT22;6689;53.400;12.486;2023-05-07T00:06:19;9.80;99.90
13245;DHT22;6689;53.400;12.486;2023-05-07T00:08:46;9.90;99.90
13245;DHT22;6689;53.400;12.486;2023-05-07T00:11:15;9.90;99.90
13245;DHT22;6689;53.400;12.486;2023-05-07T00:13:42;9.90;99.90
13245;DHT22;6689;53.400;12.486;2023-05-07T00:16:10;9.90;99.90
13245;DHT22;6689;53.400;12.486;2023-05-07T00:18:37;10.00;99.90
13245;DHT22;6689;53.400;12.486;2023-05-07T00:21:05;10.00;99.90
13245;DHT22;6689;53.400;12.486;2023-05-07T00:23:34;10.00;99.90
13245;DHT22;6689;53.400;12.486;2023-05-07T00:26:01;10.00;99.90
13245;DHT22;6689;53.400;12.486;2023-05-07T00:28:29;10.00;99.90
13245;DHT22;6689;53.400;12.486;2023-05-07T00:30:56;10.00;99.90
13245;DHT22;6689;53.400;12.486;2023-05-07T00:33:26;10.00;99.90
13245;DHT22;6689;53.400;12.486;2023-05-07T00:35:54;10.00;99.90
13245;DHT22;6689;53.400;12.486;2023-05-07T00:38:21;10.10;99.90
13245;DHT22;6689;53.400;12.486;2023-05-07T00:40:50;10.10;99.90
13245;DHT22;6689;53.400;12.486;2023-05-07T00:43:17;10.00;99.90
13245;DHT22;6689;53.400;12.486;2023-05-07T00:45:44;10.00;99.90
13245;DHT22;6689;53.400;12.486;2023-05-07T00:48:12;10.00;99.90
13245;DHT22;6689;53.400;12.486;2023-05-07T00:50:41;10.00;99.90
13245;DHT22;6689;53.400;12.486;2023-05-07T00:53:08;10.00;99.90
13245;DHT22;6689;53.400;12.486;2023-05-07T00:55:36;10.00;99.90
13245;DHT22;6689;53.400;12.486;2023-05-07T00:58:05;10.00;99.90
13245;DHT22;6689;53.400;12.486;2023-05-07T01:00:34;10.00;99.90
13245;DHT22;6689;53.400;12.486;2023-05-07T01:03:01;10.00;99.90
13245;DHT22;6689;53.400;12.486;2023-05-07T01:05:29;10.00;99.90
13245;DHT22;6689;53.400;12.486;2023-05-07T01:07:57;10.00;99.90
13245;DHT22;6689;53.400;12.486;2023-05-07T01:10:25;10.00;99.90
13245;DHT22;6689;53.400;12.486;2023-05-07T01:13:01;10.00;99.90
13245;DHT22;6689;53.400;12.486;2023-05-07T01:15:33;10.00;99.90
13245;DHT22;6689;53.400;12.486;2023-05-07T01:18:01;10.00;99.90
13245;DHT22;6689;53.400;12.486;2023-05-07T01:20:32;10.00;99.90
13245;DHT22;6689;53.400;12.486;2023-05-07T01:23:01;10.00;99.90
13245;DHT22;6689;53.400;12.486;2023-05-07T01:25:29;9.80;99.90
13245;DHT22;6689;53.400;12.486;2023-05-07T01:27:57;9.90;99.90
13245;DHT22;6689;53.400;12.486;2023-05-07T01:30:26;9.90;99.90
13245;DHT22;6689;53.400;12.486;2023-05-07T01:32:58;9.80;99.90
13245;DHT22;6689;53.400;12.486;2023-05-07T01:35:29;9.70;99.90
13245;DHT22;6689;53.400;12.486;2023-05-07T01:37:57;9.80;99.90
13245;DHT22;6689;53.400;12.486;2023-05-07T01:40:27;9.80;99.90
13245;DHT22;6689;53.400;12.486;2023-05-07T01:42:55;9.90;99.90
13245;DHT22;6689;53.400;12.486;2023-05-07T01:45:22;9.90;99.90
13245;DHT22;6689;53.400;12.486;2023-05-07T01:47:50;9.90;99.90
13245;DHT22;6689;53.400;12.486;2023-05-07T01:50:19;9.90;99.90
13245;DHT22;6689;53.400;12.486;2023-05-07T01:52:49;9.90;99.90
13245;DHT22;6689;53.400;12.486;2023-05-07T01:55:17;9.80;99.90
13245;DHT22;6689;53.400;12.486;2023-05-07T01:57:46;9.90;99.90
13245;DHT22;6689;53.400;12.486;2023-05-07T02:00:14;9.90;99.90
13245;DHT22;6689;53.400;12.486;2023-05-07T02:02:43;9.90;99.90
13245;DHT22;6689;53.400;12.486;2023-05-07T02:05:10;9.90;99.90
13245;DHT22;6689;53.400;12.486;2023-05-07T02:07:37;9.90;99.90
13245;DHT22;6689;53.400;12.486;2023-05-07T02:10:06;9.80;99.90
13245;DHT22;6689;53.400;12.486;2023-05-07T02:12:33;9.60;99.90
13245;DHT22;6689;53.400;12.486;2023-05-07T02:15:02;9.80;99.90
13245;DHT22;6689;53.400;12.486;2023-05-07T02:17:30;9.80;99.90
13245;DHT22;6689;53.400;12.486;2023-05-07T02:19:58;9.90;99.90
13245;DHT22;6689;53.400;12.486;2023-05-07T02:22:27;9.90;99.90
13245;DHT22;6689;53.400;12.486;2023-05-07T02:24:56;9.80;99.90
13245;DHT22;6689;53.400;12.486;2023-05-07T02:27:23;9.90;99.90
13245;DHT22;6689;53.400;12.486;2023-05-07T02:29:50;9.90;99.90
13245;DHT22;6689;53.400;12.486;2023-05-07T02:32:19;9.90;99.90
13245;DHT22;6689;53.400;12.486;2023-05-07T02:34:49;9.90;99.90
13245;DHT22;6689;53.400;12.486;2023-05-07T02:37:17;9.90;99.90
13245;DHT22;6689;53.400;12.486;2023-05-07T02:39:44;10.00;99.90
13245;DHT22;6689;53.400;12.486;2023-05-07T02:42:11;9.90;99.90
13245;DHT22;6689;53.400;12.486;2023-05-07T02:44:39;9.90;99.90
13245;DHT22;6689;53.400;12.486;2023-05-07T02:47:06;9.90;99.90
13245;DHT22;6689;53.400;12.486;2023-05-07T02:49:36;9.90;99.90
13245;DHT22;6689;53.400;12.486;2023-05-07T02:52:04;9.70;99.90
13245;DHT22;6689;53.400;12.486;2023-05-07T02:54:31;9.80;99.90
13245;DHT22;6689;53.400;12.486;2023-05-07T02:56:58;9.70;99.90
13245;DHT22;6689;53.400;12.486;2023-05-07T02:59:26;9.80;99.90
13245;DHT22;6689;53.400;12.486;2023-05-07T03:01:54;9.70;99.90
13245;DHT22;6689;53.400;12.486;2023-05-07T03:04:24;9.70;99.90
13245;DHT22;6689;53.400;12.486;2023-05-07T03:06:53;9.70;99.90
13245;DHT22;6689;53.400;12.486;2023-05-07T03:09:20;9.70;99.90
13245;DHT22;6689;53.400;12.486;2023-05-07T03:11:48;9.80;99.90
13245;DHT22;6689;53.400;12.486;2023-05-07T03:14:15;9.70;99.90
13245;DHT22;6689;53.400;12.486;2023-05-07T03:16:42;9.60;99.90
13245;DHT22;6689;53.400;12.486;2023-05-07T03:19:10;9.70;99.90
13245;DHT22;6689;53.400;12.486;2023-05-07T03:21:37;9.70;99.90
13245;DHT22;6689;53.400;12.486;2023-05-07T03:24:06;9.70;99.90
13245;DHT22;6689;53.400;12.486;2023-05-07T03:26:34;9.60;99.90
13245;DHT22;6689;53.400;12.486;2023-05-07T03:29:01;9.60;99.90
13245;DHT22;6689;53.400;12.486;2023-05-07T03:31:28;9.70;99.90
13245;DHT22;6689;53.400;12.486;2023-05-07T03:33:57;9.70;99.90
13245;DHT22;6689;53.400;12.486;2023-05-07T03:36:24;9.80;99.90
13245;DHT22;6689;53.400;12.486;2023-05-07T03:38:52;9.70;99.90
13245;DHT22;6689;53.400;12.486;2023-05-07T03:41:21;9.50;99.90
13245;DHT22;6689;53.400;12.486;2023-05-07T03:43:48;9.60;99.90
13245;DHT22;6689;53.400;12.486;2023-05-07T03:46:16;9.60;99.90
13245;DHT22;6689;53.400;12.486;2023-05-07T03:48:46;9.70;99.90
13245;DHT22;6689;53.400;12.486;2023-05-07T03:51:13;9.70;99.90
13245;DHT22;6689;53.400;12.486;2023-05-07T03:53:40;9.70;99.90
13245;DHT22;6689;53.400;12.486;2023-05-07T03:56:08;9.70;99.90
13245;DHT22;6689;53.400;12.486;2023-05-07T03:58:37;9.70;99.90
13245;DHT22;6689;53.400;12.486;2023-05-07T04:01:04;9.60;99.90
13245;DHT22;6689;53.400;12.486;2023-05-07T04:03:33;9.70;99.90
13245;DHT22;6689;53.400;12.486;2023-05-07T04:06:00;9.70;99.90
13245;DHT22;6689;53.400;12.486;2023-05-07T04:08:28;9.60;99.90
13245;DHT22;6689;53.400;12.486;2023-05-07T04:10:56;9.60;99.90
13245;DHT22;6689;53.400;12.486;2023-05-07T04:13:23;9.60;99.90
13245;DHT22;6689;53.400;12.486;2023-05-07T04:15:54;9.50;99.90
13245;DHT22;6689;53.400;12.486;2023-05-07T04:18:24;9.50;99.90
13245;DHT22;6689;53.400;12.486;2023-05-07T04:20:52;9.30;99.90
13245;DHT22;6689;53.400;12.486;2023-05-07T04:23:19;9.50;99.90
13245;DHT22;6689;53.400;12.486;2023-05-07T04:25:46;9.60;99.90
13245;DHT22;6689;53.400;12.486;2023-05-07T04:28:14;9.60;99.90
13245;DHT22;6689;53.400;12.486;2023-05-07T04:30:41;9.80;99.90
13245;DHT22;6689;53.400;12.486;2023-05-07T04:33:10;10.00;99.90
13245;DHT22;6689;53.400;12.486;2023-05-07T04:35:37;10.10;99.90
13245;DHT22;6689;53.400;12.486;2023-05-07T04:38:05;10.30;99.90
13245;DHT22;6689;53.400;12.486;2023-05-07T04:40:32;10.60;99.90
13245;DHT22;6689;53.400;12.486;2023-05-07T04:42:59;10.80;99.90
13245;DHT22;6689;53.400;12.486;2023-05-07T04:45:27;11.00;99.90
13245;DHT22;6689;53.400;12.486;2023-05-07T04:47:54;11.30;99.90
13245;DHT22;6689;53.400;12.486;2023-05-07T04:50:23;11.40;99.90
13245;DHT22;6689;53.400;12.486;2023-05-07T04:52:51;11.30;99.90
13245;DHT22;6689;53.400;12.486;2023-05-07T04:55:19;11.10;99.90
13245;DHT22;6689;53.400;12.486;2023-05-07T04:57:46;11.20;99.90
13245;DHT22;6689;53.400;12.486;2023-05-07T05:00:15;11.30;99.90
13245;DHT22;6689;53.400;12.486;2023-05-07T05:02:45;11.30;99.90
13245;DHT22;6689;53.400;12.486;2023-05-07T05:05:13;11.40;99.90
13245;DHT22;6689;53.400;12.486;2023-05-07T05:07:41;11.50;99.90
13245;DHT22;6689;53.400;12.486;2023-05-07T05:10:09;11.50;99.90
13245;DHT22;6689;53.400;12.486;2023-05-07T05:12:36;11.60;99.90
13245;DHT22;6689;53.400;12.486;2023-05-07T05:15:04;11.50;99.90
13245;DHT22;6689;53.400;12.486;2023-05-07T05:17:32;11.40;99.90
13245;DHT22;6689;53.400;12.486;2023-05-07T05:20:00;11.40;99.90
13245;DHT22;6689;53.400;12.486;2023-05-07T05:22:28;11.40;99.90
13245;DHT22;6689;53.400;12.486;2023-05-07T05:24:58;11.40;99.90
13245;DHT22;6689;53.400;12.486;2023-05-07T05:27:26;11.20;99.90
13245;DHT22;6689;53.400;12.486;2023-05-07T05:29:53;11.00;99.90
13245;DHT22;6689;53.400;12.486;2023-05-07T05:32:20;10.90;99.90
13245;DHT22;6689;53.400;12.486;2023-05-07T05:34:48;10.80;99.90
13245;DHT22;6689;53.400;12.486;2023-05-07T05:37:16;11.00;99.90
13245;DHT22;6689;53.400;12.486;2023-05-07T05:39:43;10.80;99.90
13245;DHT22;6689;53.400;12.486;2023-05-07T05:42:12;11.00;99.90
13245;DHT22;6689;53.400;12.486;2023-05-07T05:44:41;11.30;99.90
13245;DHT22;6689;53.400;12.486;2023-05-07T05:47:09;11.60;99.90
13245;DHT22;6689;53.400;12.486;2023-05-07T05:49:36;11.80;99.90
13245;DHT22;6689;53.400;12.486;2023-05-07T05:52:04;11.60;99.90
13245;DHT22;6689;53.400;12.486;2023-05-07T05:54:32;11.80;99.90
13245;DHT22;6689;53.400;12.486;2023-05-07T05:56:59;12.10;99.90
13245;DHT22;6689;53.400;12.486;2023-05-07T05:59:31;12.30;99.90
13245;DHT22;6689;53.400;12.486;2023-05-07T06:01:58;12.50;99.90
13245;DHT22;6689;53.400;12.486;2023-05-07T06:04:26;12.60;99.90
13245;DHT22;6689;53.400;12.486;2023-05-07T06:06:53;12.70;99.90
13245;DHT22;6689;53.400;12.486;2023-05-07T06:09:20;12.70;99.90
13245;DHT22;6689;53.400;12.486;2023-05-07T06:11:47;12.80;84.30
13245;DHT22;6689;53.400;12.486;2023-05-07T06:14:17;12.80;73.80
13245;DHT22;6689;53.400;12.486;2023-05-07T06:16:45;12.70;73.70
13245;DHT22;6689;53.400;12.486;2023-05-07T06:19:13;13.10;78.60
13245;DHT22;6689;53.400;12.486;2023-05-07T06:21:40;13.20;72.70
13245;DHT22;6689;53.400;12.486;2023-05-07T06:24:08;13.40;66.10
13245;DHT22;6689;53.400;12.486;2023-05-07T06:26:36;13.20;40.30
13245;DHT22;6689;53.400;12.486;2023-05-07T06:29:03;13.50;33.30
13245;DHT22;6689;53.400;12.486;2023-05-07T06:31:31;13.40;30.60
13245;DHT22;6689;53.400;12.486;2023-05-07T06:34:00;13.50;40.60
13245;DHT22;6689;53.400;12.486;2023-05-07T06:36:28;13.50;17.20
13245;DHT22;6689;53.400;12.486;2023-05-07T06:38:55;13.70;26.20
13245;DHT22;6689;53.400;12.486;2023-05-07T06:41:22;14.00;33.00
13245;DHT22;6689;53.400;12.486;2023-05-07T06:43:49;14.10;27.60
13245;DHT22;6689;53.400;12.486;2023-05-07T06:46:17;14.20;9.60
13245;DHT22;6689;53.400;12.486;2023-05-07T06:48:44;14.20;1.00
13245;DHT22;6689;53.400;12.486;2023-05-07T06:51:13;14.00;1.20
13245;DHT22;6689;53.400;12.486;2023-05-07T06:53:40;14.20;1.00
13245;DHT22;6689;53.400;12.486;2023-05-07T06:56:08;14.30;1.00
13245;DHT22;6689;53.400;12.486;2023-05-07T06:58:36;14.50;1.00
13245;DHT22;6689;53.400;12.486;2023-05-07T07:01:03;14.50;1.00
13245;DHT22;6689;53.400;12.486;2023-05-07T07:03:30;14.70;1.00
13245;DHT22;6689;53.400;12.486;2023-05-07T07:05:58;14.80;1.00
13245;DHT22;6689;53.400;12.486;2023-05-07T07:08:29;14.90;1.00
13245;DHT22;6689;53.400;12.486;2023-05-07T07:10:56;14.70;1.00
13245;DHT22;6689;53.400;12.486;2023-05-07T07:13:23;15.00;1.00
13245;DHT22;6689;53.400;12.486;2023-05-07T07:15:51;14.90;1.00
13245;DHT22;6689;53.400;12.486;2023-05-07T07:18:19;15.10;1.00
13245;DHT22;6689;53.400;12.486;2023-05-07T07:20:46;15.20;1.00
13245;DHT22;6689;53.400;12.486;2023-05-07T07:23:13;15.40;1.00
13245;DHT22;6689;53.400;12.486;2023-05-07T07:25:47;15.30;1.00
13245;DHT22;6689;53.400;12.486;2023-05-07T07:28:14;15.40;1.00
13245;DHT22;6689;53.400;12.486;2023-05-07T07:30:41;15.30;1.00
13245;DHT22;6689;53.400;12.486;2023-05-07T07:33:09;15.30;1.00
13245;DHT22;6689;53.400;12.486;2023-05-07T07:35:37;15.50;1.00
13245;DHT22;6689;53.400;12.486;2023-05-07T07:38:04;15.50;1.00
13245;DHT22;6689;53.400;12.486;2023-05-07T07:40:31;15.70;1.00
13245;DHT22;6689;53.400;12.486;2023-05-07T07:43:00;15.60;1.00
13245;DHT22;6689;53.400;12.486;2023-05-07T07:45:27;16.00;1.00
13245;DHT22;6689;53.400;12.486;2023-05-07T07:47:55;16.20;1.00
13245;DHT22;6689;53.400;12.486;2023-05-07T07:50:22;16.00;1.00
13245;DHT22;6689;53.400;12.486;2023-05-07T07:52:50;16.00;1.00
13245;DHT22;6689;53.400;12.486;2023-05-07T07:55:20;16.20;1.00
13245;DHT22;6689;53.400;12.486;2023-05-07T07:57:48;16.30;1.00
13245;DHT22;6689;53.400;12.486;2023-05-07T08:00:18;16.20;1.00
13245;DHT22;6689;53.400;12.486;2023-05-07T08:02:46;16.20;1.00
13245;DHT22;6689;53.400;12.486;2023-05-07T08:05:13;16.20;1.00
13245;DHT22;6689;53.400;12.486;2023-05-07T08:07:41;15.70;1.00
13245;DHT22;6689;53.400;12.486;2023-05-07T08:10:09;16.30;1.00
13245;DHT22;6689;53.400;12.486;2023-05-07T08:12:36;16.50;1.00
13245;DHT22;6689;53.400;12.486;2023-05-07T08:15:04;16.70;1.00
13245;DHT22;6689;53.400;12.486;2023-05-07T08:17:33;16.70;1.00
13245;DHT22;6689;53.400;12.486;2023-05-07T08:20:00;16.60;1.00
13245;DHT22;6689;53.400;12.486;2023-05-07T08:22:27;16.60;1.00
13245;DHT22;6689;53.400;12.486;2023-05-07T08:24:55;16.70;1.00
13245;DHT22;6689;53.400;12.486;2023-05-07T08:27:22;16.80;1.00
13245;DHT22;6689;53.400;12.486;2023-05-07T08:29:50;16.90;1.00
13245;DHT22;6689;53.400;12.486;2023-05-07T08:32:17;16.80;1.00
13245;DHT22;6689;53.400;12.486;2023-05-07T08:34:46;16.50;1.00
13245;DHT22;6689;53.400;12.486;2023-05-07T08:37:13;16.50;1.00
13245;DHT22;6689;53.400;12.486;2023-05-07T08:39:40;16.50;1.00
13245;DHT22;6689;53.400;12.486;2023-05-07T08:42:09;16.40;1.00
13245;DHT22;6689;53.400;12.486;2023-05-07T08:44:38;16.60;1.00
13245;DHT22;6689;53.400;12.486;2023-05-07T08:47:07;16.80;1.00
13245;DHT22;6689;53.400;12.486;2023-05-07T08:49:35;17.00;1.00
13245;DHT22;6689;53.400;12.486;2023-05-07T08:52:03;17.00;1.00
13245;DHT22;6689;53.400;12.486;2023-05-07T08:54:31;17.10;1.00
13245;DHT22;6689;53.400;12.486;2023-05-07T08:56:59;17.00;1.00
13245;DHT22;6689;53.400;12.486;2023-05-07T08:59:26;17.20;1.00
13245;DHT22;6689;53.400;12.486;2023-05-07T09:01:53;17.40;1.00
13245;DHT22;6689;53.400;12.486;2023-05-07T09:04:21;17.40;1.00
13245;DHT22;6689;53.400;12.486;2023-05-07T09:06:48;17.60;1.00
13245;DHT22;6689;53.400;12.486;2023-05-07T09:09:18;17.70;1.00
13245;DHT22;6689;53.400;12.486;2023-05-07T09:11:45;17.70;1.00
13245;DHT22;6689;53.400;12.486;2023-05-07T09:14:13;17.50;1.00
13245;DHT22;6689;53.400;12.486;2023-05-07T09:16:40;17.70;1.00
13245;DHT22;6689;53.400;12.486;2023-05-07T09:19:07;18.00;1.00
13245;DHT22;6689;53.400;12.486;2023-05-07T09:21:35;18.10;1.00
13245;DHT22;6689;53.400;12.486;2023-05-07T09:24:03;18.20;1.00
13245;DHT22;6689;53.400;12.486;2023-05-07T09:26:32;18.10;1.00
13245;DHT22;6689;53.400;12.486;2023-05-07T09:29:00;18.10;1.00
13245;DHT22;6689;53.400;12.486;2023-05-07T09:31:28;18.10;1.00
13245;DHT22;6689;53.400;12.486;2023-05-07T09:33:55;18.10;1.00
13245;DHT22;6689;53.400;12.486;2023-05-07T09:36:22;17.90;1.00
13245;DHT22;6689;53.400;12.486;2023-05-07T09:38:50;17.90;1.00
13245;DHT22;6689;53.400;12.486;2023-05-07T09:41:17;18.00;1.00
13245;DHT22;6689;53.400;12.486;2023-05-07T09:43:53;18.20;1.00
13245;DHT22;6689;53.400;12.486;2023-05-07T09:46:27;18.20;1.00
13245;DHT22;6689;53.400;12.486;2023-05-07T09:48:57;18.00;1.00
13245;DHT22;6689;53.400;12.486;2023-05-07T09:51:29;17.80;1.00
13245;DHT22;6689;53.400;12.486;2023-05-07T09:54:00;17.70;1.00
13245;DHT22;6689;53.400;12.486;2023-05-07T09:56:29;17.90;1.00
13245;DHT22;6689;53.400;12.486;2023-05-07T09:59:00;18.00;1.00
13245;DHT22;6689;53.400;12.486;2023-05-07T10:01:28;17.90;1.00
13245;DHT22;6689;53.400;12.486;2023-05-07T10:03:56;18.10;1.00
13245;DHT22;6689;53.400;12.486;2023-05-07T10:06:25;17.70;1.00
13245;DHT22;6689;53.400;12.486;2023-05-07T10:08:53;18.20;1.00
13245;DHT22;6689;53.400;12.486;2023-05-07T10:11:22;18.00;1.00
13245;DHT22;6689;53.400;12.486;2023-05-07T10:13:50;18.20;1.00
13245;DHT22;6689;53.400;12.486;2023-05-07T10:16:21;17.90;1.00
13245;DHT22;6689;53.400;12.486;2023-05-07T10:18:51;18.30;1.00
13245;DHT22;6689;53.400;12.486;2023-05-07T10:21:21;18.30;1.00
13245;DHT22;6689;53.400;12.486;2023-05-07T10:23:56;18.00;1.00
13245;DHT22;6689;53.400;12.486;2023-05-07T10:26:26;18.30;1.00
13245;DHT22;6689;53.400;12.486;2023-05-07T10:28:57;18.30;1.00
13245;DHT22;6689;53.400;12.486;2023-05-07T10:34:35;18.60;1.00
13245;DHT22;6689;53.400;12.486;2023-05-07T10:37:04;18.20;1.00
13245;DHT22;6689;53.400;12.486;2023-05-07T10:39:31;18.50;1.00
13245;DHT22;6689;53.400;12.486;2023-05-07T10:42:07;18.70;1.00
13245;DHT22;6689;53.400;12.486;2023-05-07T10:44:35;19.00;1.00
13245;DHT22;6689;53.400;12.486;2023-05-07T10:47:05;19.20;1.00
13245;DHT22;6689;53.400;12.486;2023-05-07T10:49:36;19.30;1.00
13245;DHT22;6689;53.400;12.486;2023-05-07T10:52:17;19.30;1.00
13245;DHT22;6689;53.400;12.486;2023-05-07T10:54:45;19.60;1.00
13245;DHT22;6689;53.400;12.486;2023-05-07T10:57:33;19.50;1.00
13245;DHT22;6689;53.400;12.486;2023-05-07T11:00:02;19.40;1.00
13245;DHT22;6689;53.400;12.486;2023-05-07T11:03:06;19.30;1.00
13245;DHT22;6689;53.400;12.486;2023-05-07T11:05:36;19.30;1.00
13245;DHT22;6689;53.400;12.486;2023-05-07T11:08:05;19.20;1.00
13245;DHT22;6689;53.400;12.486;2023-05-07T11:10:49;19.50;1.00
13245;DHT22;6689;53.400;12.486;2023-05-07T11:13:16;19.60;1.00
13245;DHT22;6689;53.400;12.486;2023-05-07T11:15:45;19.60;1.00
13245;DHT22;6689;53.400;12.486;2023-05-07T11:18:14;19.90;1.00
13245;DHT22;6689;53.400;12.486;2023-05-07T11:20:50;20.10;1.00
13245;DHT22;6689;53.400;12.486;2023-05-07T11:23:55;20.30;1.00
13245;DHT22;6689;53.400;12.486;2023-05-07T11:26:26;20.50;1.00
13245;DHT22;6689;53.400;12.486;2023-05-07T11:28:54;20.70;1.00
13245;DHT22;6689;53.400;12.486;2023-05-07T11:31:24;20.70;1.00
13245;DHT22;6689;53.400;12.486;2023-05-07T11:33:52;20.50;1.00
13245;DHT22;6689;53.400;12.486;2023-05-07T11:36:23;20.60;1.00
13245;DHT22;6689;53.400;12.486;2023-05-07T11:38:52;20.30;1.00
13245;DHT22;6689;53.400;12.486;2023-05-07T11:41:21;19.90;1.00
13245;DHT22;6689;53.400;12.486;2023-05-07T11:43:56;20.30;1.00
13245;DHT22;6689;53.400;12.486;2023-05-07T11:46:24;20.30;1.00
13245;DHT22;6689;53.400;12.486;2023-05-07T11:48:51;20.20;1.00
13245;DHT22;6689;53.400;12.486;2023-05-07T11:51:24;20.50;1.00
13245;DHT22;6689;53.400;12.486;2023-05-07T11:53:53;20.40;1.00
13245;DHT22;6689;53.400;12.486;2023-05-07T11:56:20;20.40;1.00
13245;DHT22;6689;53.400;12.486;2023-05-07T11:58:48;20.30;1.00
13245;DHT22;6689;53.400;12.486;2023-05-07T12:01:17;20.60;1.00
13245;DHT22;6689;53.400;12.486;2023-05-07T12:03:46;20.70;1.00
13245;DHT22;6689;53.400;12.486;2023-05-07T12:06:15;20.80;1.00
13245;DHT22;6689;53.400;12.486;2023-05-07T12:08:47;21.00;1.00
13245;DHT22;6689;53.400;12.486;2023-05-07T12:11:15;20.90;1.00
13245;DHT22;6689;53.400;12.486;2023-05-07T12:13:43;21.00;1.00
13245;DHT22;6689;53.400;12.486;2023-05-07T12:16:11;20.90;1.00
13245;DHT22;6689;53.400;12.486;2023-05-07T12:18:39;21.00;1.00
13245;DHT22;6689;53.400;12.486;2023-05-07T12:21:10;20.60;1.00
13245;DHT22;6689;53.400;12.486;2023-05-07T12:23:38;20.90;1.00
13245;DHT22;6689;53.400;12.486;2023-05-07T12:26:08;21.10;1.00
13245;DHT22;6689;53.400;12.486;2023-05-07T12:28:37;20.90;1.00
13245;DHT22;6689;53.400;12.486;2023-05-07T12:31:06;21.00;1.00
13245;DHT22;6689;53.400;12.486;2023-05-07T12:33:34;20.90;1.00
13245;DHT22;6689;53.400;12.486;2023-05-07T12:36:07;20.90;1.00
13245;DHT22;6689;53.400;12.486;2023-05-07T12:38:36;20.90;1.00
13245;DHT22;6689;53.400;12.486;2023-05-07T12:41:05;21.00;1.00
13245;DHT22;6689;53.400;12.486;2023-05-07T12:43:34;21.10;1.00
13245;DHT22;6689;53.400;12.486;2023-05-07T12:46:04;21.20;1.00
13245;DHT22;6689;53.400;12.486;2023-05-07T12:48:31;21.30;1.00
13245;DHT22;6689;53.400;12.486;2023-05-07T12:51:00;21.20;1.00
13245;DHT22;6689;53.400;12.486;2023-05-07T12:53:29;21.40;1.00
13245;DHT22;6689;53.400;12.486;2023-05-07T12:55:57;21.50;1.00
13245;DHT22;6689;53.400;12.486;2023-05-07T12:58:27;21.50;1.00
13245;DHT22;6689;53.400;12.486;2023-05-07T13:00:58;21.20;1.00
13245;DHT22;6689;53.400;12.486;2023-05-07T13:03:27;21.30;1.00
13245;DHT22;6689;53.400;12.486;2023-05-07T13:05:55;21.20;1.00
13245;DHT22;6689;53.400;12.486;2023-05-07T13:08:24;21.10;1.00
13245;DHT22;6689;53.400;12.486;2023-05-07T13:10:52;20.90;99.90
13245;DHT22;6689;53.400;12.486;2023-05-07T13:13:20;20.70;1.00
13245;DHT22;6689;53.400;12.486;2023-05-07T13:15:50;20.80;1.00
13245;DHT22;6689;53.400;12.486;2023-05-07T13:18:19;20.70;1.00
13245;DHT22;6689;53.400;12.486;2023-05-07T13:20:47;20.80;1.00
13245;DHT22;6689;53.400;12.486;2023-05-07T13:23:17;20.90;1.00
13245;DHT22;6689;53.400;12.486;2023-05-07T13:25:44;21.00;1.00
13245;DHT22;6689;53.400;12.486;2023-05-07T13:28:11;21.20;1.00
13245;DHT22;6689;53.400;12.486;2023-05-07T13:30:39;21.40;1.00
13245;DHT22;6689;53.400;12.486;2023-05-07T13:33:07;21.50;1.00
13245;DHT22;6689;53.400;12.486;2023-05-07T13:35:36;21.50;1.00
13245;DHT22;6689;53.400;12.486;2023-05-07T13:38:03;21.60;1.00
13245;DHT22;6689;53.400;12.486;2023-05-07T13:40:31;21.80;1.00
13245;DHT22;6689;53.400;12.486;2023-05-07T13:42:59;21.60;99.90
13245;DHT22;6689;53.400;12.486;2023-05-07T13:45:27;21.20;99.90
13245;DHT22;6689;53.400;12.486;2023-05-07T13:47:56;21.40;99.90
13245;DHT22;6689;53.400;12.486;2023-05-07T13:50:23;21.40;99.90
13245;DHT22;6689;53.400;12.486;2023-05-07T13:52:54;21.10;1.00
13245;DHT22;6689;53.400;12.486;2023-05-07T13:55:23;21.20;1.00
13245;DHT22;6689;53.400;12.486;2023-05-07T13:57:56;21.30;1.00
13245;DHT22;6689;53.400;12.486;2023-05-07T14:00:24;21.20;1.00
13245;DHT22;6689;53.400;12.486;2023-05-07T14:02:52;21.40;1.00
13245;DHT22;6689;53.400;12.486;2023-05-07T14:05:19;21.30;1.00
13245;DHT22;6689;53.400;12.486;2023-05-07T14:07:49;21.40;1.00
13245;DHT22;6689;53.400;12.486;2023-05-07T14:10:19;21.30;1.00
13245;DHT22;6689;53.400;12.486;2023-05-07T14:12:46;21.20;99.90
13245;DHT22;6689;53.400;12.486;2023-05-07T14:15:14;21.10;1.00
13245;DHT22;6689;53.400;12.486;2023-05-07T14:17:41;21.10;1.00
13245;DHT22;6689;53.400;12.486;2023-05-07T14:20:09;21.20;1.00
13245;DHT22;6689;53.400;12.486;2023-05-07T14:22:37;21.10;99.90
13245;DHT22;6689;53.400;12.486;2023-05-07T14:25:05;20.80;99.90
13245;DHT22;6689;53.400;12.486;2023-05-07T14:27:34;20.90;99.90
13245;DHT22;6689;53.400;12.486;2023-05-07T14:30:02;20.80;99.90
13245;DHT22;6689;53.400;12.486;2023-05-07T14:32:30;20.70;99.90
13245;DHT22;6689;53.400;12.486;2023-05-07T14:34:57;20.60;1.00
13245;DHT22;6689;53.400;12.486;2023-05-07T14:37:24;20.50;1.00
13245;DHT22;6689;53.400;12.486;2023-05-07T14:39:51;20.40;1.00
13245;DHT22;6689;53.400;12.486;2023-05-07T14:42:19;20.30;1.00
13245;DHT22;6689;53.400;12.486;2023-05-07T14:44:48;20.30;1.00
13245;DHT22;6689;53.400;12.486;2023-05-07T14:47:15;20.30;1.00
13245;DHT22;6689;53.400;12.486;2023-05-07T14:49:42;20.30;1.00
13245;DHT22;6689;53.400;12.486;2023-05-07T14:52:10;20.10;1.00
13245;DHT22;6689;53.400;12.486;2023-05-07T14:54:38;20.20;1.00
13245;DHT22;6689;53.400;12.486;2023-05-07T14:57:06;20.20;1.00
13245;DHT22;6689;53.400;12.486;2023-05-07T14:59:34;20.30;1.00
13245;DHT22;6689;53.400;12.486;2023-05-07T15:02:03;20.30;1.00
13245;DHT22;6689;53.400;12.486;2023-05-07T15:04:31;20.20;1.00
13245;DHT22;6689;53.400;12.486;2023-05-07T15:06:58;20.20;1.00
13245;DHT22;6689;53.400;12.486;2023-05-07T15:09:26;20.20;1.00
13245;DHT22;6689;53.400;12.486;2023-05-07T15:11:53;20.20;1.00
13245;DHT22;6689;53.400;12.486;2023-05-07T15:14:21;20.20;1.00
13245;DHT22;6689;53.400;12.486;2023-05-07T15:16:48;20.10;1.00
13245;DHT22;6689;53.400;12.486;2023-05-07T15:19:16;20.30;1.00
13245;DHT22;6689;53.400;12.486;2023-05-07T15:21:44;20.20;99.90
13245;DHT22;6689;53.400;12.486;2023-05-07T15:24:11;19.80;99.90
13245;DHT22;6689;53.400;12.486;2023-05-07T15:26:38;20.00;1.40
13245;DHT22;6689;53.400;12.486;2023-05-07T15:29:05;20.20;1.00
13245;DHT22;6689;53.400;12.486;2023-05-07T15:31:36;20.30;1.00
13245;DHT22;6689;53.400;12.486;2023-05-07T15:34:04;20.20;1.00
13245;DHT22;6689;53.400;12.486;2023-05-07T15:36:33;20.20;1.00
13245;DHT22;6689;53.400;12.486;2023-05-07T15:39:01;20.10;1.00
13245;DHT22;6689;53.400;12.486;2023-05-07T15:41:30;20.10;1.00
13245;DHT22;6689;53.400;12.486;2023-05-07T15:43:57;20.10;1.00
13245;DHT22;6689;53.400;12.486;2023-05-07T15:46:25;20.00;1.00
13245;DHT22;6689;53.400;12.486;2023-05-07T15:48:53;20.00;1.00
13245;DHT22;6689;53.400;12.486;2023-05-07T15:51:23;20.10;1.00
13245;DHT22;6689;53.400;12.486;2023-05-07T15:53:53;20.10;1.00